Sidi Ifni, Morocco
Current Conditions -  °F | °C
As of 9:00 AM on Wednesday 22 Oct 2014 (Local Time) from GMAG Reporting Station
Clear Clear  
Wind Chill: 70°   Ceiling: Unl
Heat Index: 70°   Visibility: 6mi
Dew Point: 28°   Wind: 9mph
Humidity: 21%   Direction: 100°E
Pressure: 30.09"   Gusts: NA
Location:  29.38°N, 10.18°W
Report Text: GMAG 220800Z 10008KT CAVOK 21/M02 Q1019 NOSIG
Loading
Personal Weather Stations






























Interactive Weather Map
Tropical Storm Tracking
New forecast layout! Learn more

10-Day Weather Forecast

Advertisements
Track Severe Weather on mobile